createdAt,value
2022-10-12T00:01:32.104Z,101273.63
2022-10-12T00:03:58.885Z,101271.88
2022-10-12T00:06:25.703Z,101269.16
2022-10-12T00:08:54.260Z,101267.97
2022-10-12T00:11:26.187Z,101267.63
2022-10-12T00:13:54.499Z,101272.91
2022-10-12T00:16:23.140Z,101269.75
2022-10-12T00:18:54.470Z,101274.19
2022-10-12T00:21:22.459Z,101273.13
2022-10-12T00:23:49.806Z,101280.28
2022-10-12T00:26:21.466Z,101281.56
2022-10-12T00:28:49.232Z,101286.31
2022-10-12T00:31:18.402Z,101295.69
2022-10-12T00:33:46.701Z,101279.59
2022-10-12T00:36:15.475Z,101288.94
2022-10-12T00:38:42.259Z,101290.56
2022-10-12T00:41:08.949Z,101288.41
2022-10-12T00:43:39.113Z,101292.72
2022-10-12T00:46:13.814Z,101294.06
2022-10-12T00:48:41.333Z,101280.78
2022-10-12T00:51:09.779Z,101284.97
2022-10-12T00:53:42.564Z,101278.16
2022-10-12T00:56:16.041Z,101281.22
2022-10-12T00:58:42.924Z,101291.78
2022-10-12T01:01:10.503Z,101281.81
2022-10-12T01:03:37.593Z,101287.25
2022-10-12T01:06:06.234Z,101280.41
2022-10-12T01:08:33.491Z,101284.16
2022-10-12T01:11:00.100Z,101282.94
2022-10-12T01:13:26.937Z,101279.06
2022-10-12T01:16:03.167Z,101276.50
2022-10-12T01:18:40.298Z,101277.97
2022-10-12T01:21:13.922Z,101287.47
2022-10-12T01:23:55.801Z,101282.88
2022-10-12T01:26:39.796Z,101275.91
2022-10-12T01:29:40.451Z,101292.81
2022-10-12T01:32:25.784Z,101291.91
2022-10-12T01:35:05.316Z,101281.47
2022-10-12T01:37:48.827Z,101272.47
2022-10-12T01:40:24.140Z,101271.78
2022-10-12T01:42:51.492Z,101273.88
2022-10-12T01:45:19.205Z,101268.72
2022-10-12T01:47:49.810Z,101269.22
2022-10-12T01:50:17.481Z,101270.97
2022-10-12T01:52:59.273Z,101269.31
2022-10-12T01:55:39.575Z,101259.34
2022-10-12T01:58:23.473Z,101272.69
2022-10-12T02:01:29.032Z,101271.72
2022-10-12T02:04:13.667Z,101273.38
2022-10-12T02:06:47.132Z,101259.00
2022-10-12T02:09:32.958Z,101265.72
2022-10-12T02:12:05.524Z,101264.53
2022-10-12T02:14:41.110Z,101261.75
2022-10-12T02:17:12.370Z,101257.59
2022-10-12T02:19:45.026Z,101256.31
2022-10-12T02:22:35.668Z,101259.69
2022-10-12T02:25:11.033Z,101253.25
2022-10-12T02:27:42.325Z,101244.72
2022-10-12T02:30:10.215Z,101247.19
2022-10-12T02:32:42.180Z,101244.34
2022-10-12T02:35:25.363Z,101247.94
2022-10-12T02:37:54.839Z,101245.78
2022-10-12T02:40:37.642Z,101248.00
2022-10-12T02:43:13.646Z,101246.00
2022-10-12T02:45:44.586Z,101240.25
2022-10-12T02:48:16.135Z,101244.31
2022-10-12T02:50:43.764Z,101239.91
2022-10-12T02:53:12.532Z,101237.44
2022-10-12T02:55:48.039Z,101232.06
2022-10-12T02:58:14.709Z,101237.66
2022-10-12T03:00:41.384Z,101234.94
2022-10-12T03:03:07.990Z,101234.78
2022-10-12T03:05:34.590Z,101228.00
2022-10-12T03:08:01.208Z,101230.69
2022-10-12T03:10:27.877Z,101226.47
2022-10-12T03:12:54.698Z,101233.31
2022-10-12T03:15:21.877Z,101233.47
2022-10-12T03:17:48.511Z,101229.41
2022-10-12T03:20:15.681Z,101231.75
2022-10-12T03:22:42.297Z,101226.72
2022-10-12T03:25:09.130Z,101223.81
2022-10-12T03:27:39.003Z,101214.94
2022-10-12T03:30:06.575Z,101226.28
2022-10-12T03:32:33.376Z,101226.28
2022-10-12T03:35:00.369Z,101226.69
2022-10-12T03:37:27.189Z,101232.13
2022-10-12T03:39:53.865Z,101236.66
2022-10-12T03:42:20.758Z,101239.66
2022-10-12T03:44:47.378Z,101243.47
2022-10-12T03:47:14.030Z,101241.97
2022-10-12T03:49:40.639Z,101243.53
2022-10-12T03:52:07.720Z,101241.38
2022-10-12T03:54:34.565Z,101240.66
2022-10-12T03:57:01.225Z,101246.63
2022-10-12T03:59:28.139Z,101237.56
2022-10-12T04:01:54.885Z,101237.78
2022-10-12T04:04:21.986Z,101242.03
2022-10-12T04:06:48.679Z,101245.34
2022-10-12T04:09:18.548Z,101236.06
2022-10-12T04:11:45.141Z,101240.09
2022-10-12T04:14:12.040Z,101241.78
2022-10-12T04:16:38.765Z,101243.44
2022-10-12T04:19:05.355Z,101242.34
2022-10-12T04:21:32.101Z,101245.50
2022-10-12T04:23:58.990Z,101251.84
2022-10-12T04:26:25.607Z,101246.44
2022-10-12T04:28:52.255Z,101248.63
2022-10-12T04:31:18.946Z,101252.75
2022-10-12T04:33:45.870Z,101245.63
2022-10-12T04:36:12.669Z,101241.84
2022-10-12T04:38:39.481Z,101247.72
2022-10-12T04:41:09.206Z,101243.16
2022-10-12T04:43:35.823Z,101245.25
2022-10-12T04:46:02.965Z,101252.28
2022-10-12T04:48:29.650Z,101245.53
2022-10-12T04:50:58.596Z,101253.34
2022-10-12T04:53:25.249Z,101257.22
2022-10-12T04:55:51.876Z,101242.44
2022-10-12T04:58:18.894Z,101243.31
2022-10-12T05:00:47.988Z,101249.22
2022-10-12T05:03:14.960Z,101253.88
2022-10-12T05:05:44.534Z,101252.81
2022-10-12T05:08:12.096Z,101246.09
2022-10-12T05:10:39.944Z,101248.69
2022-10-12T05:13:09.125Z,101251.59
2022-10-12T05:15:35.873Z,101253.91
2022-10-12T05:18:02.437Z,101257.97
2022-10-12T05:20:29.048Z,101248.19
2022-10-12T05:22:57.964Z,101255.00
2022-10-12T05:25:24.815Z,101248.00
2022-10-12T05:27:51.505Z,101246.53
2022-10-12T05:30:18.258Z,101247.59
2022-10-12T05:32:44.985Z,101254.22
2022-10-12T05:35:11.767Z,101259.16
2022-10-12T05:37:39.067Z,101251.22
2022-10-12T05:40:06.996Z,101259.88
2022-10-12T05:42:34.665Z,101255.97
2022-10-12T05:45:01.820Z,101259.66
2022-10-12T05:47:30.742Z,101256.44
2022-10-12T05:49:57.315Z,101263.69
2022-10-12T05:52:24.188Z,101265.44
2022-10-12T05:54:50.901Z,101263.69
2022-10-12T05:57:17.620Z,101266.38
2022-10-12T05:59:46.458Z,101263.56
2022-10-12T06:02:15.127Z,101268.94
2022-10-12T06:04:41.980Z,101269.91
2022-10-12T06:07:08.957Z,101276.13
2022-10-12T06:09:38.778Z,101272.81
2022-10-12T06:12:06.605Z,101259.88
2022-10-12T06:14:33.526Z,101266.88
2022-10-12T06:17:00.306Z,101268.97
2022-10-12T06:19:27.078Z,101261.66
2022-10-12T06:21:56.391Z,101263.56
2022-10-12T06:24:23.034Z,101268.00
2022-10-12T06:26:49.652Z,101264.88
2022-10-12T06:29:17.460Z,101273.94
2022-10-12T06:31:48.991Z,101265.16
2022-10-12T06:34:18.429Z,101263.09
2022-10-12T06:36:45.130Z,101265.81
2022-10-12T06:39:11.979Z,101268.63
2022-10-12T06:41:39.051Z,101267.81
2022-10-12T06:44:08.851Z,101268.63
2022-10-12T06:46:36.019Z,101266.53
2022-10-12T06:49:03.667Z,101271.34
2022-10-12T06:51:30.279Z,101269.72
2022-10-12T06:53:57.062Z,101274.44
2022-10-12T06:56:23.672Z,101276.91
2022-10-12T06:58:57.247Z,101279.16
2022-10-12T07:01:24.241Z,101274.75
2022-10-12T07:03:51.808Z,101282.41
2022-10-12T07:06:18.869Z,101272.13
2022-10-12T07:08:45.932Z,101278.00
2022-10-12T07:11:13.549Z,101285.34
2022-10-12T07:13:40.454Z,101282.66
2022-10-12T07:16:07.481Z,101284.34
2022-10-12T07:18:34.551Z,101283.81
2022-10-12T07:21:02.689Z,101290.94
2022-10-12T07:23:33.521Z,101289.31
2022-10-12T07:26:00.658Z,101284.69
2022-10-12T07:28:28.035Z,101287.38
2022-10-12T07:30:54.766Z,101283.84
2022-10-12T07:33:21.405Z,101279.88
2022-10-12T07:36:13.308Z,101290.41
2022-10-12T07:38:43.992Z,101282.41
2022-10-12T07:41:11.362Z,101283.00
2022-10-12T07:43:39.009Z,101282.78
2022-10-12T07:46:06.211Z,101278.75
2022-10-12T07:48:34.054Z,101285.75
2022-10-12T07:51:05.405Z,101286.81
2022-10-12T07:53:34.256Z,101286.66
2022-10-12T07:56:06.827Z,101286.81
2022-10-12T07:58:33.880Z,101292.44
2022-10-12T08:01:08.161Z,101298.88
2022-10-12T08:03:35.361Z,101290.13
2022-10-12T08:06:12.944Z,101289.13
2022-10-12T08:08:40.318Z,101291.16
2022-10-12T08:11:08.108Z,101295.50
2022-10-12T08:13:35.444Z,101287.47
2022-10-12T08:16:04.838Z,101300.03
2022-10-12T08:18:31.881Z,101296.75
2022-10-12T08:20:58.592Z,101299.47
2022-10-12T08:23:25.672Z,101295.28
2022-10-12T08:25:53.605Z,101289.59
2022-10-12T08:28:20.704Z,101298.03
2022-10-12T08:30:47.394Z,101288.25
2022-10-12T08:33:15.392Z,101287.97
2022-10-12T08:35:42.804Z,101277.94
2022-10-12T08:38:11.302Z,101283.50
2022-10-12T08:40:47.047Z,101284.31
2022-10-12T08:43:46.249Z,101279.00
2022-10-12T08:46:13.345Z,101286.06
2022-10-12T08:48:52.369Z,101281.25
2022-10-12T08:51:24.655Z,101282.53
2022-10-12T08:53:57.384Z,101281.59
2022-10-12T08:56:24.862Z,101283.72
2022-10-12T08:58:53.101Z,101280.19
2022-10-12T09:01:19.763Z,101278.69
2022-10-12T09:04:25.783Z,101285.34
2022-10-12T09:07:10.526Z,101290.19
2022-10-12T09:10:05.197Z,101293.59
2022-10-12T09:12:46.779Z,101292.88
2022-10-12T09:15:31.012Z,101299.31
2022-10-12T09:18:00.336Z,101300.06
2022-10-12T09:20:54.303Z,101301.97
2022-10-12T09:23:30.601Z,101306.28
2022-10-12T09:26:04.368Z,101306.84
2022-10-12T09:28:49.051Z,101298.53
2022-10-12T09:31:50.763Z,101307.09
2022-10-12T09:34:19.395Z,101305.22
2022-10-12T09:36:46.531Z,101302.47
2022-10-12T09:39:18.713Z,101302.41
2022-10-12T09:41:47.475Z,101305.75
2022-10-12T09:44:28.422Z,101302.03
2022-10-12T09:47:21.817Z,101304.00
2022-10-12T09:49:50.397Z,101299.28
2022-10-12T09:52:24.804Z,101294.13
2022-10-12T09:55:05.283Z,101291.72
2022-10-12T09:57:36.851Z,101284.97
2022-10-12T10:00:08.697Z,101287.72
2022-10-12T10:02:50.295Z,101285.38
2022-10-12T10:05:32.116Z,101285.66
2022-10-12T10:08:14.060Z,101283.97
2022-10-12T10:10:55.509Z,101285.97
2022-10-12T10:13:26.495Z,101286.75
2022-10-12T10:16:04.828Z,101279.75
2022-10-12T10:18:39.328Z,101283.41
2022-10-12T10:21:14.649Z,101282.44
2022-10-12T10:23:54.866Z,101283.50
2022-10-12T10:26:24.037Z,101284.13
2022-10-12T10:28:56.750Z,101297.59
2022-10-12T10:31:28.018Z,101284.84
2022-10-12T10:34:15.947Z,101293.41
2022-10-12T10:36:56.422Z,101290.72
2022-10-12T10:39:31.391Z,101294.59
2022-10-12T10:42:12.789Z,101286.66
2022-10-12T10:44:39.647Z,101284.41
2022-10-12T10:47:12.649Z,101280.00
2022-10-12T10:49:45.650Z,101279.41
2022-10-12T10:52:26.658Z,101277.22
2022-10-12T10:55:18.272Z,101271.56
2022-10-12T10:57:54.914Z,101262.44
2022-10-12T11:00:40.286Z,101266.06
2022-10-12T11:03:25.546Z,101263.75
2022-10-12T11:05:59.594Z,101257.13
2022-10-12T11:08:30.395Z,101261.72
2022-10-12T11:11:06.947Z,101255.84
2022-10-12T11:13:55.673Z,101255.34
2022-10-12T11:16:36.069Z,101247.00
2022-10-12T11:19:18.164Z,101253.44
2022-10-12T11:21:54.958Z,101251.94
2022-10-12T11:24:31.912Z,101246.66
2022-10-12T11:27:11.244Z,101247.78
2022-10-12T11:29:38.403Z,101242.00
2022-10-12T11:32:31.566Z,101233.16
2022-10-12T11:35:03.035Z,101236.97
2022-10-12T11:37:39.794Z,101229.75
2022-10-12T11:40:17.215Z,101225.88
2022-10-12T11:42:43.999Z,101224.44
2022-10-12T11:45:20.888Z,101221.44
2022-10-12T11:47:55.249Z,101219.78
2022-10-12T11:50:37.052Z,101213.25
2022-10-12T11:53:11.230Z,101204.75
2022-10-12T11:55:44.435Z,101206.69
2022-10-12T11:58:24.452Z,101203.53
2022-10-12T12:01:22.628Z,101195.63
2022-10-12T12:04:36.845Z,101207.56
2022-10-12T12:07:06.794Z,101206.09
2022-10-12T12:09:45.320Z,101196.56
2022-10-12T12:12:28.273Z,101196.75
2022-10-12T12:14:54.922Z,101191.69
2022-10-12T12:17:26.942Z,101186.78
2022-10-12T12:19:59.619Z,101184.97
2022-10-12T12:22:44.890Z,101180.41
2022-10-12T12:25:11.433Z,101175.69
2022-10-12T12:28:15.477Z,101173.75
2022-10-12T12:30:54.620Z,101169.75
2022-10-12T12:33:21.131Z,101164.19
2022-10-12T12:35:56.507Z,101163.25
2022-10-12T12:38:28.127Z,101158.28
2022-10-12T12:41:13.607Z,101153.94
2022-10-12T12:43:56.063Z,101150.88
2022-10-12T12:46:25.812Z,101147.19
2022-10-12T12:48:52.360Z,101151.44
2022-10-12T12:51:35.776Z,101150.72
2022-10-12T12:54:20.461Z,101147.47
2022-10-12T12:57:08.916Z,101145.28
2022-10-12T13:00:04.294Z,101150.72
2022-10-12T13:02:50.791Z,101146.63
2022-10-12T13:05:57.226Z,101145.00
2022-10-12T13:08:39.305Z,101143.03
2022-10-12T13:11:33.639Z,101142.84
2022-10-12T13:14:39.203Z,101145.00
2022-10-12T13:17:40.430Z,101143.88
2022-10-12T13:20:29.744Z,101139.78
2022-10-12T13:22:58.326Z,101138.22
2022-10-12T13:25:58.925Z,101132.22
2022-10-12T13:28:29.513Z,101136.53
2022-10-12T13:31:04.335Z,101143.22
2022-10-12T13:33:41.473Z,101136.25
2022-10-12T13:36:21.391Z,101141.19
2022-10-12T13:38:48.246Z,101142.56
2022-10-12T13:41:18.912Z,101138.56
2022-10-12T13:43:48.638Z,101134.75
2022-10-12T13:46:35.873Z,101132.91
2022-10-12T13:49:04.294Z,101131.31
2022-10-12T13:51:31.865Z,101122.34
2022-10-12T13:53:58.619Z,101131.91
2022-10-12T13:56:28.185Z,101131.69
2022-10-12T13:59:04.126Z,101126.53
2022-10-12T14:01:35.377Z,101125.19
2022-10-12T14:04:05.463Z,101124.06
2022-10-12T14:06:35.276Z,101124.06
2022-10-12T14:09:17.128Z,101114.84
2022-10-12T14:11:45.213Z,101115.13
2022-10-12T14:14:29.884Z,101112.66
2022-10-12T14:16:56.719Z,101120.28
2022-10-12T14:19:36.066Z,101121.63
2022-10-12T14:22:03.433Z,101106.13
2022-10-12T14:24:30.748Z,101108.03
2022-10-12T14:27:02.829Z,101108.84
2022-10-12T14:29:32.571Z,101112.66
2022-10-12T14:32:01.940Z,101108.84
2022-10-12T14:34:31.934Z,101100.13
2022-10-12T14:37:04.847Z,101108.81
2022-10-12T14:39:31.919Z,101101.19
2022-10-12T14:42:18.016Z,101112.84
2022-10-12T14:44:44.847Z,101101.16
2022-10-12T14:47:20.516Z,101106.34
2022-10-12T14:49:49.134Z,101088.16
2022-10-12T14:52:37.870Z,101091.16
2022-10-12T14:55:05.625Z,101074.28
2022-10-12T14:57:32.648Z,101082.69
2022-10-12T14:59:59.256Z,101087.25
2022-10-12T15:02:28.344Z,101074.31
2022-10-12T15:04:56.471Z,101073.22
2022-10-12T15:07:25.915Z,101087.63
2022-10-12T15:09:53.430Z,101085.75
2022-10-12T15:12:22.677Z,101090.09
2022-10-12T15:14:51.481Z,101087.66
2022-10-12T15:17:19.371Z,101087.09
2022-10-12T15:19:48.647Z,101081.41
2022-10-12T15:22:24.023Z,101086.84
2022-10-12T15:24:52.982Z,101078.69
2022-10-12T15:27:20.344Z,101081.66
2022-10-12T15:29:48.081Z,101086.56
2022-10-12T15:32:17.748Z,101086.00
2022-10-12T15:34:45.145Z,101075.09
2022-10-12T15:37:12.245Z,101069.66
2022-10-12T15:39:39.185Z,101073.47
2022-10-12T15:42:06.124Z,101069.41
2022-10-12T15:44:42.651Z,101068.06
2022-10-12T15:47:10.991Z,101076.97
2022-10-12T15:49:38.490Z,101071.38
2022-10-12T15:52:06.337Z,101077.31
2022-10-12T15:54:32.949Z,101080.03
2022-10-12T15:56:59.796Z,101081.91
2022-10-12T15:59:27.245Z,101082.69
2022-10-12T16:01:54.424Z,101073.69
2022-10-12T16:04:21.188Z,101074.28
2022-10-12T16:06:47.780Z,101075.31
2022-10-12T16:09:14.439Z,101070.13
2022-10-12T16:11:41.492Z,101066.03
2022-10-12T16:14:10.679Z,101062.81
2022-10-12T16:16:37.734Z,101061.09
2022-10-12T16:19:04.736Z,101061.38
2022-10-12T16:21:31.351Z,101072.16
2022-10-12T16:23:59.030Z,101076.75
2022-10-12T16:26:27.173Z,101066.44
2022-10-12T16:28:53.777Z,101063.47
2022-10-12T16:31:20.517Z,101065.09
2022-10-12T16:33:47.998Z,101054.69
2022-10-12T16:36:16.584Z,101061.72
2022-10-12T16:38:43.906Z,101070.94
2022-10-12T16:41:12.392Z,101061.72
2022-10-12T16:43:39.157Z,101064.44
2022-10-12T16:46:06.707Z,101062.28
2022-10-12T16:48:33.729Z,101066.09
2022-10-12T16:51:00.546Z,101064.66
2022-10-12T16:53:27.495Z,101071.34
2022-10-12T16:55:56.477Z,101063.22
2022-10-12T16:58:23.333Z,101063.31
2022-10-12T17:00:50.100Z,101062.66
2022-10-12T17:03:16.800Z,101066.72
2022-10-12T17:05:43.422Z,101066.38
2022-10-12T17:08:15.334Z,101065.31
2022-10-12T17:10:44.118Z,101072.06
2022-10-12T17:13:13.186Z,101070.72
2022-10-12T17:15:41.553Z,101067.44
2022-10-12T17:18:08.763Z,101065.25
2022-10-12T17:20:36.473Z,101064.94
2022-10-12T17:23:03.967Z,101061.47
2022-10-12T17:25:30.651Z,101060.34
2022-10-12T17:27:57.351Z,101060.59
2022-10-12T17:30:24.035Z,101069.53
2022-10-12T17:32:50.750Z,101073.34
2022-10-12T17:35:17.538Z,101074.53
2022-10-12T17:37:44.348Z,101073.75
2022-10-12T17:40:11.447Z,101079.38
2022-10-12T17:42:38.192Z,101083.97
2022-10-12T17:45:05.282Z,101081.25
2022-10-12T17:47:31.988Z,101078.22
2022-10-12T17:49:58.578Z,101078.19
2022-10-12T17:52:25.236Z,101066.78
2022-10-12T17:54:51.795Z,101068.34
2022-10-12T17:57:18.867Z,101077.88
2022-10-12T17:59:45.939Z,101085.50
2022-10-12T18:02:12.630Z,101082.16
2022-10-12T18:04:39.321Z,101092.72
2022-10-12T18:07:05.951Z,101075.59
2022-10-12T18:09:32.538Z,101080.53
2022-10-12T18:11:59.164Z,101075.72
2022-10-12T18:14:25.850Z,101081.41
2022-10-12T18:16:54.265Z,101078.09
2022-10-12T18:19:20.998Z,101081.88
2022-10-12T18:21:47.641Z,101079.06
2022-10-12T18:24:17.553Z,101085.63
2022-10-12T18:26:45.901Z,101084.56
2022-10-12T18:29:15.425Z,101082.66
2022-10-12T18:31:42.140Z,101081.06
2022-10-12T18:34:09.035Z,101080.00
2022-10-12T18:36:35.710Z,101089.66
2022-10-12T18:39:04.599Z,101086.34
2022-10-12T18:41:31.688Z,101085.00
2022-10-12T18:44:00.605Z,101086.59
2022-10-12T18:46:29.102Z,101093.97
2022-10-12T18:48:56.116Z,101090.13
2022-10-12T18:51:29.751Z,101084.66
2022-10-12T18:53:57.881Z,101087.63
2022-10-12T18:56:25.639Z,101090.31
2022-10-12T18:58:52.564Z,101078.69
2022-10-12T19:01:22.708Z,101079.94
2022-10-12T19:03:50.115Z,101078.88
2022-10-12T19:06:20.294Z,101078.63
2022-10-12T19:08:50.556Z,101079.63
2022-10-12T19:11:20.055Z,101072.94
2022-10-12T19:13:55.289Z,101079.59
2022-10-12T19:16:23.039Z,101084.19
2022-10-12T19:18:55.630Z,101081.06
2022-10-12T19:21:22.514Z,101074.00
2022-10-12T19:23:49.090Z,101080.34
2022-10-12T19:26:18.190Z,101073.19
2022-10-12T19:28:45.963Z,101071.00
2022-10-12T19:31:21.881Z,101067.41
2022-10-12T19:33:49.296Z,101066.34
2022-10-12T19:36:18.317Z,101066.16
2022-10-12T19:38:46.305Z,101075.53
2022-10-12T19:41:13.227Z,101067.78
2022-10-12T19:43:40.824Z,101071.16
2022-10-12T19:46:10.406Z,101069.78
2022-10-12T19:48:40.994Z,101071.44
2022-10-12T19:51:12.973Z,101076.13
2022-10-12T19:53:40.678Z,101075.63
2022-10-12T19:56:15.716Z,101062.31
2022-10-12T19:58:45.114Z,101066.38
2022-10-12T20:01:14.847Z,101066.13
2022-10-12T20:03:47.455Z,101063.97
2022-10-12T20:06:14.814Z,101074.72
2022-10-12T20:08:42.980Z,101079.38
2022-10-12T20:11:16.956Z,101089.13
2022-10-12T20:13:46.185Z,101084.25
2022-10-12T20:16:14.042Z,101081.03
2022-10-12T20:18:41.048Z,101081.84
2022-10-12T20:21:09.906Z,101086.66
2022-10-12T20:23:38.100Z,101085.56
2022-10-12T20:26:08.204Z,101074.63
2022-10-12T20:28:36.520Z,101074.13
2022-10-12T20:31:05.918Z,101071.69
2022-10-12T20:33:39.923Z,101069.03
2022-10-12T20:36:27.493Z,101063.53
2022-10-12T20:38:54.480Z,101071.75
2022-10-12T20:41:25.398Z,101063.81
2022-10-12T20:44:00.252Z,101079.22
2022-10-12T20:46:28.191Z,101081.78
2022-10-12T20:48:58.979Z,101070.34
2022-10-12T20:51:32.258Z,101066.56
2022-10-12T20:54:00.856Z,101060.53
2022-10-12T20:56:29.170Z,101066.63
2022-10-12T20:58:56.027Z,101065.38
2022-10-12T21:01:24.345Z,101064.66
2022-10-12T21:03:52.675Z,101069.59
2022-10-12T21:06:21.535Z,101073.16
2022-10-12T21:08:53.675Z,101074.81
2022-10-12T21:11:21.595Z,101075.97
2022-10-12T21:13:48.643Z,101076.63
2022-10-12T21:16:16.504Z,101072.38
2022-10-12T21:18:43.708Z,101070.72
2022-10-12T21:21:14.107Z,101070.91
2022-10-12T21:23:41.977Z,101080.09
2022-10-12T21:26:17.102Z,101076.38
2022-10-12T21:28:44.824Z,101074.50
2022-10-12T21:31:13.123Z,101065.81
2022-10-12T21:33:40.449Z,101074.69
2022-10-12T21:36:10.236Z,101071.72
2022-10-12T21:38:37.305Z,101074.56
2022-10-12T21:41:05.164Z,101065.66
2022-10-12T21:43:35.262Z,101058.19
2022-10-12T21:46:10.508Z,101061.16
2022-10-12T21:48:37.561Z,101065.97
2022-10-12T21:51:05.861Z,101074.00
2022-10-12T21:53:34.739Z,101070.41
2022-10-12T21:56:14.300Z,101062.78
2022-10-12T21:58:41.208Z,101067.53
2022-10-12T22:01:10.963Z,101066.72
2022-10-12T22:03:37.860Z,101073.19
2022-10-12T22:06:04.859Z,101076.97
2022-10-12T22:08:32.236Z,101073.34
2022-10-12T22:11:06.986Z,101077.63
2022-10-12T22:13:34.628Z,101068.13
2022-10-12T22:16:04.053Z,101067.16
2022-10-12T22:18:31.008Z,101072.25
2022-10-12T22:20:58.044Z,101069.44
2022-10-12T22:23:24.733Z,101074.38
2022-10-12T22:25:53.328Z,101065.72
2022-10-12T22:28:20.007Z,101071.34
2022-10-12T22:30:46.927Z,101073.56
2022-10-12T22:33:13.640Z,101072.09
2022-10-12T22:35:40.214Z,101067.09
2022-10-12T22:38:06.810Z,101065.03
2022-10-12T22:40:33.472Z,101076.34
2022-10-12T22:43:00.196Z,101073.97
2022-10-12T22:45:28.137Z,101075.84
2022-10-12T22:47:54.916Z,101080.94
2022-10-12T22:50:21.698Z,101078.81
2022-10-12T22:52:48.676Z,101072.41
2022-10-12T22:55:15.657Z,101069.44
2022-10-12T22:57:42.337Z,101075.75
2022-10-12T23:00:09.464Z,101073.88
2022-10-12T23:02:36.077Z,101080.69
2022-10-12T23:05:03.399Z,101085.03
2022-10-12T23:07:30.091Z,101075.53
2022-10-12T23:09:56.680Z,101074.28
2022-10-12T23:12:23.353Z,101075.84
2022-10-12T23:14:51.246Z,101075.59
2022-10-12T23:17:17.879Z,101076.59
2022-10-12T23:19:44.447Z,101084.75
2022-10-12T23:22:11.220Z,101081.91
2022-10-12T23:24:40.182Z,101083.69
2022-10-12T23:27:06.808Z,101077.38
2022-10-12T23:29:33.585Z,101076.25
2022-10-12T23:32:00.306Z,101070.63
2022-10-12T23:34:26.983Z,101071.25
2022-10-12T23:36:53.873Z,101073.63
2022-10-12T23:39:22.267Z,101066.84
2022-10-12T23:41:49.767Z,101070.94
2022-10-12T23:44:16.806Z,101076.59
2022-10-12T23:46:44.486Z,101068.81
2022-10-12T23:49:11.503Z,101067.50
2022-10-12T23:51:39.870Z,101068.31
2022-10-12T23:54:06.917Z,101063.16
2022-10-12T23:56:34.235Z,101057.94
2022-10-12T23:59:01.342Z,101059.47
